Flight Track Log - Related Links

Times and Time Zones

All times are in EDT time to prevent confusion due to time zone crossing. See the SKW5631 flight status page for this flight to view local times or setup timezone preferences in your user account.

Time Position Orientation Groundspeed Altitude Reporting Facility
EDT Latitude Longitude Course Direction KTS MPH feet Rate Location/Type
Sun 10:08:40 PM 37.6500 -122.3667 141° Southeast 170 196 1,000  Level Northern Cal TRACON
Sun 10:09:40 PM 37.7000 -122.3667 360° North 215 247 3,100 2,286 Climbing Northern Cal TRACON
Sun 10:10:46 PM 37.7000 -122.4333 270° West 247 284 5,800 2,619 Climbing Northern Cal TRACON
Sun 10:11:00 PM 37.2270 -121.8879 122° Southeast  Level Estimated
Sun 10:11:46 PM 37.6333 -122.4500 191° South 280 322 8,600  Level Northern Cal TRACON
Sun 10:12:00 PM 37.1287 -121.7669 141° Southeast  Level Estimated
Sun 10:13:00 PM 37.0302 -121.6462 138° Southeast  Level Estimated
Sun 10:13:09 PM 37.5211 -122.4750 190° South 294 338 11,800  Level Oakland Center
Sun 10:14:00 PM 36.9317 -121.5257 141° Southeast  Level Estimated
Sun 10:14:10 PM 37.4489 -122.4106 145° Southeast 324 373 13,800  Level Oakland Center
Sun 10:15:11 PM 37.3783 -122.3331 139° Southeast 335 386 15,700 1,820 Climbing Oakland Center
Sun 10:16:12 PM 37.3067 -122.2519 138° Southeast 347 399 17,500 1,623 Climbing Oakland Center
Sun 10:17:13 PM 37.2339 -122.1719 139° Southeast 349 402 19,000 1,377 Climbing Oakland Center
Sun 10:18:14 PM 37.1589 -122.0897 139° Southeast 357 411 20,300 1,426 Climbing Oakland Center
Sun 10:19:15 PM 37.0847 -122.0058 138° Southeast 360 414 21,900 1,268 Climbing Oakland Center
Sun 10:20:17 PM 37.0089 -121.9217 138° Southeast 363 418 22,900 1,024 Climbing Oakland Center
Sun 10:21:18 PM 36.9308 -121.8350 138° Southeast 373 429 24,000 934 Climbing Oakland Center
Sun 10:22:19 PM 36.8333 -121.7317 140° Southeast 384 442 24,800 984 Climbing Oakland Center
Sun 10:23:20 PM 36.7586 -121.6481 138° Southeast 386 444 26,000 984 Climbing Oakland Center
Sun 10:24:21 PM 36.6772 -121.5581 138° Southeast 392 451 26,800 492 Climbing Oakland Center
Sun 10:25:22 PM 36.5925 -121.4664 139° Southeast 402 463 27,000 98 Climbing Oakland Center
Sun 10:26:23 PM 36.5067 -121.3728 139° Southeast 410 472 27,000  Level Oakland Center
Sun 10:27:24 PM 36.4194 -121.2761 138° Southeast 419 482 27,000  Level Oakland Center
Sun 10:28:25 PM 36.3328 -121.1797 138° Southeast 419 482 27,000  Level Oakland Center
Sun 10:29:26 PM 36.2447 -121.0878 140° Southeast 416 479 27,000  Level Oakland Center
Sun 10:30:27 PM 36.1428 -120.9769 139° Southeast 410 472 27,000  Level Oakland Center
Sun 10:31:28 PM 36.0583 -120.8858 139° Southeast 404 465 27,000  Level Oakland Center
Sun 10:32:29 PM 35.9733 -120.7953 139° Southeast 404 465 27,000  Level Oakland Center
Sun 10:33:31 PM 35.8894 -120.7053 139° Southeast 402 463 27,000  Level Oakland Center
Sun 10:34:32 PM 35.8053 -120.6153 139° Southeast 401 461 27,000  Level Oakland Center
Sun 10:35:33 PM 35.7211 -120.5256 139° Southeast 401 461 27,000  Level Oakland Center
Sun 10:36:44 PM 35.6153 -120.4139 139° Southeast 400 460 27,000  Level Los Angeles Center
Sun 10:37:46 PM 35.5319 -120.3258 139° Southeast 397 457 27,000 -48 Level Los Angeles Center
Sun 10:38:48 PM 35.4467 -120.2378 140° Southeast 400 460 26,900  Descending Los Angeles Center
Sun 10:39:49 PM 35.3633 -120.1506 140° Southeast 396 456 27,000 49 Climbing Los Angeles Center
Sun 10:40:51 PM 35.2786 -120.0589 139° Southeast 396 456 27,000  Level Los Angeles Center
Sun 10:41:53 PM 35.1942 -119.9697 139° Southeast 399 459 27,000 -439 Level Los Angeles Center
Sun 10:42:54 PM 35.1097 -119.8828 140° Southeast 398 458 26,100 -1,463 Descending Los Angeles Center
Sun 10:43:56 PM 35.0336 -119.7861 134° Southeast 397 457 24,000 -1,984 Descending Los Angeles Center
Sun 10:44:58 PM 34.9486 -119.6697 132° Southeast 386 444 22,000 -1,805 Descending Los Angeles Center
Sun 10:45:59 PM 34.8756 -119.5733 133° Southeast 387 445 20,300 -1,659 Descending Los Angeles Center
Sun 10:47:01 PM 34.8044 -119.4772 132° Southeast 385 443 18,600 -1,659 Descending Los Angeles Center
Sun 10:48:02 PM 34.7358 -119.3853 132° Southeast 372 428 16,900 -1,659 Descending Los Angeles Center
Sun 10:49:04 PM 34.6706 -119.2992 133° Southeast 355 409 15,200 -1,694 Descending Los Angeles Center
Sun 10:50:06 PM 34.6031 -119.2086 132° Southeast 340 391 13,400 -1,707 Descending Los Angeles Center
Sun 10:51:07 PM 34.5406 -119.1275 133° Southeast 329 379 11,700 -1,171 Descending Los Angeles Center
Sun 10:52:09 PM 34.4808 -119.0464 132° Southeast 321 369 11,000 -968 Descending Los Angeles Center
Sun 10:53:11 PM 34.4211 -118.9689 133° Southeast 316 364 9,700 -1,366 Descending Los Angeles Center
Sun 10:54:12 PM 34.3642 -118.8922 132° Southeast 307 353 8,200 -1,756 Descending Los Angeles Center
Sun 10:55:14 PM 34.2808 -118.8328 149° Southeast 291 335 6,100 -1,561 Descending Los Angeles Center
Sun 10:56:15 PM 34.2153 -118.7864 150° Southeast 272 313 5,000 -585 Descending Los Angeles Center
Sun 10:57:17 PM 34.1842 -118.7319 125° Southeast 245 282 4,900 -484 Descending Los Angeles Center
Sun 10:58:19 PM 34.1994 -118.6606 75° East 230 265 4,000 -871 Descending Los Angeles Center
Sun 10:59:21 PM 34.2019 -118.5931 87° East 213 245 3,100 -488 Descending Los Angeles Center
Sun 11:00:22 PM 34.2014 -118.5336 91° East 187 215 3,000 -244 Descending Los Angeles Center
Sun 11:01:24 PM 34.1997 -118.4794 92° East 174 200 2,600 -537 Descending Los Angeles Center
Sun 11:02:25 PM 34.1989 -118.4389 91° East 165 190 1,900 -585 Descending Los Angeles Center
Sun 11:03:27 PM 34.1983 -118.3700 91° East 159 183 1,400 -484 Descending Los Angeles Center

Login

Don't have an account? Register now (free) for customized features, flight alerts, and more!